sensor_id;sensor_type;location;lat;lon;timestamp;P1;durP1;ratioP1;P2;durP2;ratioP2
21235;SDS011;10775;42.678;26.324;2023-10-09T00:01:03;3.45;;;1.40;;
21235;SDS011;10775;42.678;26.324;2023-10-09T00:03:40;14.75;;;1.67;;
21235;SDS011;10775;42.678;26.324;2023-10-09T00:06:06;6.72;;;1.63;;
21235;SDS011;10775;42.678;26.324;2023-10-09T00:08:32;8.30;;;1.95;;
21235;SDS011;10775;42.678;26.324;2023-10-09T00:11:00;6.60;;;1.40;;
21235;SDS011;10775;42.678;26.324;2023-10-09T00:13:40;7.85;;;1.60;;
21235;SDS011;10775;42.678;26.324;2023-10-09T00:16:39;4.30;;;1.70;;
21235;SDS011;10775;42.678;26.324;2023-10-09T00:19:14;7.32;;;1.50;;
21235;SDS011;10775;42.678;26.324;2023-10-09T00:21:45;6.50;;;1.67;;
21235;SDS011;10775;42.678;26.324;2023-10-09T00:24:14;4.00;;;1.20;;
21235;SDS011;10775;42.678;26.324;2023-10-09T00:26:53;8.38;;;1.40;;
21235;SDS011;10775;42.678;26.324;2023-10-09T00:29:26;5.53;;;1.20;;
21235;SDS011;10775;42.678;26.324;2023-10-09T00:31:59;8.20;;;1.10;;
21235;SDS011;10775;42.678;26.324;2023-10-09T00:34:50;2.45;;;1.10;;
21235;SDS011;10775;42.678;26.324;2023-10-09T00:37:16;4.57;;;1.20;;
21235;SDS011;10775;42.678;26.324;2023-10-09T00:39:44;5.20;;;1.95;;
21235;SDS011;10775;42.678;26.324;2023-10-09T00:42:12;2.17;;;1.10;;
21235;SDS011;10775;42.678;26.324;2023-10-09T00:44:47;3.45;;;1.30;;
21235;SDS011;10775;42.678;26.324;2023-10-09T00:47:13;2.72;;;1.10;;
21235;SDS011;10775;42.678;26.324;2023-10-09T00:50:20;3.90;;;1.45;;
21235;SDS011;10775;42.678;26.324;2023-10-09T00:52:45;2.90;;;1.15;;
21235;SDS011;10775;42.678;26.324;2023-10-09T00:55:17;3.95;;;1.13;;
21235;SDS011;10775;42.678;26.324;2023-10-09T00:58:01;3.60;;;1.05;;
21235;SDS011;10775;42.678;26.324;2023-10-09T01:00:30;3.30;;;1.15;;
21235;SDS011;10775;42.678;26.324;2023-10-09T01:03:20;7.75;;;1.92;;
21235;SDS011;10775;42.678;26.324;2023-10-09T01:08:20;2.88;;;1.02;;
21235;SDS011;10775;42.678;26.324;2023-10-09T01:10:56;1.33;;;0.85;;
21235;SDS011;10775;42.678;26.324;2023-10-09T01:13:33;3.67;;;0.95;;
21235;SDS011;10775;42.678;26.324;2023-10-09T01:16:17;3.42;;;1.08;;
21235;SDS011;10775;42.678;26.324;2023-10-09T01:18:50;1.37;;;0.90;;
21235;SDS011;10775;42.678;26.324;2023-10-09T01:23:42;2.08;;;0.68;;
21235;SDS011;10775;42.678;26.324;2023-10-09T01:26:27;1.85;;;0.73;;
21235;SDS011;10775;42.678;26.324;2023-10-09T01:29:00;1.98;;;0.70;;
21235;SDS011;10775;42.678;26.324;2023-10-09T01:31:26;1.33;;;0.60;;
21235;SDS011;10775;42.678;26.324;2023-10-09T01:33:54;1.88;;;0.82;;
21235;SDS011;10775;42.678;26.324;2023-10-09T01:36:24;1.63;;;1.00;;
21235;SDS011;10775;42.678;26.324;2023-10-09T01:38:59;1.48;;;0.80;;
21235;SDS011;10775;42.678;26.324;2023-10-09T01:41:26;1.38;;;0.70;;
21235;SDS011;10775;42.678;26.324;2023-10-09T01:43:52;2.33;;;0.70;;
21235;SDS011;10775;42.678;26.324;2023-10-09T01:46:25;2.05;;;0.80;;
21235;SDS011;10775;42.678;26.324;2023-10-09T01:48:51;2.05;;;0.90;;
21235;SDS011;10775;42.678;26.324;2023-10-09T01:51:18;2.13;;;0.70;;
21235;SDS011;10775;42.678;26.324;2023-10-09T01:53:45;1.27;;;0.73;;
21235;SDS011;10775;42.678;26.324;2023-10-09T01:56:18;2.50;;;0.82;;
21235;SDS011;10775;42.678;26.324;2023-10-09T01:58:44;1.58;;;0.82;;
21235;SDS011;10775;42.678;26.324;2023-10-09T02:01:12;1.98;;;0.70;;
21235;SDS011;10775;42.678;26.324;2023-10-09T02:03:40;2.55;;;1.00;;
21235;SDS011;10775;42.678;26.324;2023-10-09T02:06:08;3.08;;;1.13;;
21235;SDS011;10775;42.678;26.324;2023-10-09T02:08:54;5.43;;;0.95;;
21235;SDS011;10775;42.678;26.324;2023-10-09T02:11:21;3.10;;;0.93;;
21235;SDS011;10775;42.678;26.324;2023-10-09T02:14:02;1.20;;;0.57;;
21235;SDS011;10775;42.678;26.324;2023-10-09T02:16:44;1.77;;;0.82;;
21235;SDS011;10775;42.678;26.324;2023-10-09T02:19:10;2.67;;;0.73;;
21235;SDS011;10775;42.678;26.324;2023-10-09T02:21:55;1.42;;;0.70;;
21235;SDS011;10775;42.678;26.324;2023-10-09T02:24:22;4.15;;;0.90;;
21235;SDS011;10775;42.678;26.324;2023-10-09T02:27:09;2.20;;;0.85;;
21235;SDS011;10775;42.678;26.324;2023-10-09T02:29:36;2.50;;;0.90;;
21235;SDS011;10775;42.678;26.324;2023-10-09T02:32:03;2.47;;;1.00;;
21235;SDS011;10775;42.678;26.324;2023-10-09T02:34:39;1.95;;;0.82;;
21235;SDS011;10775;42.678;26.324;2023-10-09T02:37:05;1.98;;;0.70;;
21235;SDS011;10775;42.678;26.324;2023-10-09T02:39:31;1.25;;;0.77;;
21235;SDS011;10775;42.678;26.324;2023-10-09T02:42:02;2.58;;;0.88;;
21235;SDS011;10775;42.678;26.324;2023-10-09T02:44:54;1.55;;;1.00;;
21235;SDS011;10775;42.678;26.324;2023-10-09T02:47:21;1.90;;;0.80;;
21235;SDS011;10775;42.678;26.324;2023-10-09T02:49:50;1.95;;;0.80;;
21235;SDS011;10775;42.678;26.324;2023-10-09T02:52:16;1.23;;;0.80;;
21235;SDS011;10775;42.678;26.324;2023-10-09T02:54:50;2.33;;;1.05;;
21235;SDS011;10775;42.678;26.324;2023-10-09T02:57:25;2.85;;;0.90;;
21235;SDS011;10775;42.678;26.324;2023-10-09T02:59:53;1.63;;;0.85;;
21235;SDS011;10775;42.678;26.324;2023-10-09T03:02:19;2.92;;;0.80;;
21235;SDS011;10775;42.678;26.324;2023-10-09T03:04:44;1.90;;;0.82;;
21235;SDS011;10775;42.678;26.324;2023-10-09T03:07:10;1.42;;;0.90;;
21235;SDS011;10775;42.678;26.324;2023-10-09T03:09:38;1.10;;;0.70;;
21235;SDS011;10775;42.678;26.324;2023-10-09T03:12:05;1.35;;;0.90;;
21235;SDS011;10775;42.678;26.324;2023-10-09T03:14:35;0.93;;;0.70;;
21235;SDS011;10775;42.678;26.324;2023-10-09T03:17:03;1.58;;;0.90;;
21235;SDS011;10775;42.678;26.324;2023-10-09T03:19:31;0.98;;;0.88;;
21235;SDS011;10775;42.678;26.324;2023-10-09T03:22:06;4.10;;;0.95;;
21235;SDS011;10775;42.678;26.324;2023-10-09T03:24:39;1.83;;;0.93;;
21235;SDS011;10775;42.678;26.324;2023-10-09T03:27:10;0.90;;;0.60;;
21235;SDS011;10775;42.678;26.324;2023-10-09T03:29:36;1.55;;;0.80;;
21235;SDS011;10775;42.678;26.324;2023-10-09T03:32:02;3.22;;;0.98;;
21235;SDS011;10775;42.678;26.324;2023-10-09T03:34:28;1.55;;;0.85;;
21235;SDS011;10775;42.678;26.324;2023-10-09T03:36:56;1.27;;;0.75;;
21235;SDS011;10775;42.678;26.324;2023-10-09T03:39:36;1.17;;;0.75;;
21235;SDS011;10775;42.678;26.324;2023-10-09T03:42:06;1.73;;;0.90;;
21235;SDS011;10775;42.678;26.324;2023-10-09T03:44:37;2.58;;;0.90;;
21235;SDS011;10775;42.678;26.324;2023-10-09T03:49:35;1.77;;;0.80;;
21235;SDS011;10775;42.678;26.324;2023-10-09T03:52:04;2.63;;;0.80;;
21235;SDS011;10775;42.678;26.324;2023-10-09T03:54:31;2.78;;;0.75;;
21235;SDS011;10775;42.678;26.324;2023-10-09T03:56:57;1.25;;;0.77;;
21235;SDS011;10775;42.678;26.324;2023-10-09T03:59:24;1.58;;;0.85;;
21235;SDS011;10775;42.678;26.324;2023-10-09T04:01:55;1.50;;;0.93;;
21235;SDS011;10775;42.678;26.324;2023-10-09T04:04:23;2.47;;;0.82;;
21235;SDS011;10775;42.678;26.324;2023-10-09T04:06:49;0.93;;;0.82;;
21235;SDS011;10775;42.678;26.324;2023-10-09T04:09:16;1.63;;;0.82;;
21235;SDS011;10775;42.678;26.324;2023-10-09T04:14:14;1.73;;;1.15;;
21235;SDS011;10775;42.678;26.324;2023-10-09T04:16:52;3.35;;;1.55;;
21235;SDS011;10775;42.678;26.324;2023-10-09T04:19:27;2.22;;;1.05;;
21235;SDS011;10775;42.678;26.324;2023-10-09T04:21:53;1.67;;;1.10;;
21235;SDS011;10775;42.678;26.324;2023-10-09T04:24:20;1.38;;;0.85;;
21235;SDS011;10775;42.678;26.324;2023-10-09T04:26:46;2.72;;;1.20;;
21235;SDS011;10775;42.678;26.324;2023-10-09T04:29:15;1.00;;;0.80;;
21235;SDS011;10775;42.678;26.324;2023-10-09T04:31:54;1.73;;;0.82;;
21235;SDS011;10775;42.678;26.324;2023-10-09T04:34:24;2.45;;;1.13;;
21235;SDS011;10775;42.678;26.324;2023-10-09T04:36:53;2.22;;;1.10;;
21235;SDS011;10775;42.678;26.324;2023-10-09T04:39:25;1.98;;;1.00;;
21235;SDS011;10775;42.678;26.324;2023-10-09T04:41:54;2.55;;;1.10;;
21235;SDS011;10775;42.678;26.324;2023-10-09T04:44:38;1.35;;;0.80;;
21235;SDS011;10775;42.678;26.324;2023-10-09T04:47:03;1.35;;;0.82;;
21235;SDS011;10775;42.678;26.324;2023-10-09T04:49:35;3.45;;;1.02;;
21235;SDS011;10775;42.678;26.324;2023-10-09T04:52:27;3.03;;;1.40;;
21235;SDS011;10775;42.678;26.324;2023-10-09T04:54:58;1.98;;;0.80;;
21235;SDS011;10775;42.678;26.324;2023-10-09T04:57:39;1.35;;;1.00;;
21235;SDS011;10775;42.678;26.324;2023-10-09T05:00:06;1.13;;;0.80;;
21235;SDS011;10775;42.678;26.324;2023-10-09T05:02:47;3.28;;;0.73;;
21235;SDS011;10775;42.678;26.324;2023-10-09T05:05:22;3.22;;;0.70;;
21235;SDS011;10775;42.678;26.324;2023-10-09T05:10:48;1.10;;;0.70;;
21235;SDS011;10775;42.678;26.324;2023-10-09T05:13:32;1.92;;;0.93;;
21235;SDS011;10775;42.678;26.324;2023-10-09T05:16:12;2.42;;;1.30;;
21235;SDS011;10775;42.678;26.324;2023-10-09T05:18:58;4.45;;;1.30;;
21235;SDS011;10775;42.678;26.324;2023-10-09T05:21:53;1.05;;;0.75;;
21235;SDS011;10775;42.678;26.324;2023-10-09T05:24:23;1.27;;;0.63;;
21235;SDS011;10775;42.678;26.324;2023-10-09T05:26:51;1.80;;;0.77;;
21235;SDS011;10775;42.678;26.324;2023-10-09T05:29:18;4.70;;;0.80;;
21235;SDS011;10775;42.678;26.324;2023-10-09T05:32:05;2.40;;;0.90;;
21235;SDS011;10775;42.678;26.324;2023-10-09T05:34:37;3.47;;;1.17;;
21235;SDS011;10775;42.678;26.324;2023-10-09T05:37:42;3.53;;;1.17;;
21235;SDS011;10775;42.678;26.324;2023-10-09T05:40:11;2.80;;;1.47;;
21235;SDS011;10775;42.678;26.324;2023-10-09T05:42:40;3.13;;;1.38;;
21235;SDS011;10775;42.678;26.324;2023-10-09T05:45:07;1.75;;;1.20;;
21235;SDS011;10775;42.678;26.324;2023-10-09T05:47:42;3.38;;;1.38;;
21235;SDS011;10775;42.678;26.324;2023-10-09T05:50:26;1.85;;;1.38;;
21235;SDS011;10775;42.678;26.324;2023-10-09T05:52:54;1.92;;;1.55;;
21235;SDS011;10775;42.678;26.324;2023-10-09T05:55:26;3.08;;;1.10;;
21235;SDS011;10775;42.678;26.324;2023-10-09T05:57:55;3.03;;;1.55;;
21235;SDS011;10775;42.678;26.324;2023-10-09T06:00:40;2.88;;;2.20;;
21235;SDS011;10775;42.678;26.324;2023-10-09T06:03:24;4.18;;;2.05;;
21235;SDS011;10775;42.678;26.324;2023-10-09T06:06:12;9.60;;;1.40;;
21235;SDS011;10775;42.678;26.324;2023-10-09T06:08:58;2.25;;;1.38;;
21235;SDS011;10775;42.678;26.324;2023-10-09T06:11:43;2.67;;;1.20;;
21235;SDS011;10775;42.678;26.324;2023-10-09T06:14:18;8.68;;;5.55;;
21235;SDS011;10775;42.678;26.324;2023-10-09T06:16:52;4.43;;;1.42;;
21235;SDS011;10775;42.678;26.324;2023-10-09T06:19:27;4.18;;;1.45;;
21235;SDS011;10775;42.678;26.324;2023-10-09T06:21:57;5.72;;;1.60;;
21235;SDS011;10775;42.678;26.324;2023-10-09T06:24:42;9.05;;;2.35;;
21235;SDS011;10775;42.678;26.324;2023-10-09T06:27:19;11.70;;;1.92;;
21235;SDS011;10775;42.678;26.324;2023-10-09T06:29:51;9.93;;;3.40;;
21235;SDS011;10775;42.678;26.324;2023-10-09T06:32:18;8.52;;;1.77;;
21235;SDS011;10775;42.678;26.324;2023-10-09T06:34:44;5.05;;;1.63;;
21235;SDS011;10775;42.678;26.324;2023-10-09T06:37:20;4.60;;;1.70;;
21235;SDS011;10775;42.678;26.324;2023-10-09T06:39:49;4.10;;;1.73;;
21235;SDS011;10775;42.678;26.324;2023-10-09T06:42:24;7.07;;;2.03;;
21235;SDS011;10775;42.678;26.324;2023-10-09T06:45:11;4.63;;;1.35;;
21235;SDS011;10775;42.678;26.324;2023-10-09T06:47:47;1.98;;;1.48;;
21235;SDS011;10775;42.678;26.324;2023-10-09T06:50:35;6.90;;;3.50;;
21235;SDS011;10775;42.678;26.324;2023-10-09T06:53:19;4.28;;;1.73;;
21235;SDS011;10775;42.678;26.324;2023-10-09T06:55:45;9.50;;;2.00;;
21235;SDS011;10775;42.678;26.324;2023-10-09T06:58:14;3.90;;;1.88;;
21235;SDS011;10775;42.678;26.324;2023-10-09T07:00:53;9.15;;;2.30;;
21235;SDS011;10775;42.678;26.324;2023-10-09T07:03:23;7.80;;;2.13;;
21235;SDS011;10775;42.678;26.324;2023-10-09T07:06:07;12.25;;;2.17;;
21235;SDS011;10775;42.678;26.324;2023-10-09T07:08:55;9.35;;;1.83;;
21235;SDS011;10775;42.678;26.324;2023-10-09T07:11:38;8.70;;;2.15;;
21235;SDS011;10775;42.678;26.324;2023-10-09T07:14:05;5.60;;;1.80;;
21235;SDS011;10775;42.678;26.324;2023-10-09T07:16:37;7.75;;;2.00;;
21235;SDS011;10775;42.678;26.324;2023-10-09T07:19:22;7.47;;;2.28;;
21235;SDS011;10775;42.678;26.324;2023-10-09T07:22:00;3.35;;;1.50;;
21235;SDS011;10775;42.678;26.324;2023-10-09T07:24:29;8.03;;;2.13;;
21235;SDS011;10775;42.678;26.324;2023-10-09T07:27:16;5.35;;;1.77;;
21235;SDS011;10775;42.678;26.324;2023-10-09T07:29:42;6.03;;;1.88;;
21235;SDS011;10775;42.678;26.324;2023-10-09T07:32:14;5.30;;;1.95;;
21235;SDS011;10775;42.678;26.324;2023-10-09T07:34:46;15.02;;;2.97;;
21235;SDS011;10775;42.678;26.324;2023-10-09T07:37:27;6.85;;;1.70;;
21235;SDS011;10775;42.678;26.324;2023-10-09T07:39:59;7.78;;;2.25;;
21235;SDS011;10775;42.678;26.324;2023-10-09T07:42:32;4.55;;;1.77;;
21235;SDS011;10775;42.678;26.324;2023-10-09T07:45:09;7.28;;;2.10;;
21235;SDS011;10775;42.678;26.324;2023-10-09T07:50:24;4.65;;;1.60;;
21235;SDS011;10775;42.678;26.324;2023-10-09T07:52:55;8.75;;;3.47;;
21235;SDS011;10775;42.678;26.324;2023-10-09T07:55:40;9.98;;;3.42;;
21235;SDS011;10775;42.678;26.324;2023-10-09T07:58:11;7.18;;;1.98;;
21235;SDS011;10775;42.678;26.324;2023-10-09T08:00:37;12.07;;;4.15;;
21235;SDS011;10775;42.678;26.324;2023-10-09T08:03:23;6.78;;;3.30;;
21235;SDS011;10775;42.678;26.324;2023-10-09T08:05:54;7.93;;;3.78;;
21235;SDS011;10775;42.678;26.324;2023-10-09T08:08:32;15.43;;;6.18;;
21235;SDS011;10775;42.678;26.324;2023-10-09T08:10:58;11.07;;;4.57;;
21235;SDS011;10775;42.678;26.324;2023-10-09T08:13:42;10.98;;;3.83;;
21235;SDS011;10775;42.678;26.324;2023-10-09T08:16:26;8.30;;;3.50;;
21235;SDS011;10775;42.678;26.324;2023-10-09T08:19:01;13.85;;;4.72;;
21235;SDS011;10775;42.678;26.324;2023-10-09T08:21:50;17.13;;;6.47;;
21235;SDS011;10775;42.678;26.324;2023-10-09T08:24:34;13.85;;;3.97;;
21235;SDS011;10775;42.678;26.324;2023-10-09T08:27:21;13.93;;;4.45;;
21235;SDS011;10775;42.678;26.324;2023-10-09T08:29:59;11.45;;;4.25;;
21235;SDS011;10775;42.678;26.324;2023-10-09T08:32:45;15.55;;;4.25;;
21235;SDS011;10775;42.678;26.324;2023-10-09T08:35:36;21.00;;;8.77;;
21235;SDS011;10775;42.678;26.324;2023-10-09T08:38:14;10.75;;;4.07;;
21235;SDS011;10775;42.678;26.324;2023-10-09T08:40:48;29.58;;;12.02;;
21235;SDS011;10775;42.678;26.324;2023-10-09T08:45:53;15.20;;;5.13;;
21235;SDS011;10775;42.678;26.324;2023-10-09T08:48:26;12.63;;;4.88;;
21235;SDS011;10775;42.678;26.324;2023-10-09T08:50:52;11.45;;;4.03;;
21235;SDS011;10775;42.678;26.324;2023-10-09T08:53:23;16.30;;;6.82;;
21235;SDS011;10775;42.678;26.324;2023-10-09T08:55:49;16.17;;;6.20;;
21235;SDS011;10775;42.678;26.324;2023-10-09T08:58:16;15.35;;;5.35;;
21235;SDS011;10775;42.678;26.324;2023-10-09T09:00:57;9.40;;;3.13;;
21235;SDS011;10775;42.678;26.324;2023-10-09T09:03:25;8.05;;;3.05;;
21235;SDS011;10775;42.678;26.324;2023-10-09T09:06:02;8.57;;;3.10;;
21235;SDS011;10775;42.678;26.324;2023-10-09T09:08:28;8.38;;;3.50;;
21235;SDS011;10775;42.678;26.324;2023-10-09T09:16:25;9.85;;;3.13;;
21235;SDS011;10775;42.678;26.324;2023-10-09T09:19:03;8.77;;;3.42;;
21235;SDS011;10775;42.678;26.324;2023-10-09T09:21:56;8.70;;;3.53;;
21235;SDS011;10775;42.678;26.324;2023-10-09T09:24:36;8.30;;;3.22;;
21235;SDS011;10775;42.678;26.324;2023-10-09T09:27:03;6.38;;;2.90;;
21235;SDS011;10775;42.678;26.324;2023-10-09T09:29:43;5.43;;;2.75;;
21235;SDS011;10775;42.678;26.324;2023-10-09T09:32:19;9.23;;;3.25;;
21235;SDS011;10775;42.678;26.324;2023-10-09T09:34:55;8.00;;;2.55;;
21235;SDS011;10775;42.678;26.324;2023-10-09T09:37:26;13.60;;;3.00;;
21235;SDS011;10775;42.678;26.324;2023-10-09T09:39:58;11.13;;;4.32;;
21235;SDS011;10775;42.678;26.324;2023-10-09T09:42:36;5.05;;;2.88;;
21235;SDS011;10775;42.678;26.324;2023-10-09T09:45:09;6.35;;;2.85;;
21235;SDS011;10775;42.678;26.324;2023-10-09T09:47:36;12.60;;;5.50;;
21235;SDS011;10775;42.678;26.324;2023-10-09T09:50:04;5.82;;;2.25;;
21235;SDS011;10775;42.678;26.324;2023-10-09T09:52:43;4.43;;;2.35;;
21235;SDS011;10775;42.678;26.324;2023-10-09T09:55:09;4.55;;;2.47;;
21235;SDS011;10775;42.678;26.324;2023-10-09T09:57:47;7.72;;;2.10;;
21235;SDS011;10775;42.678;26.324;2023-10-09T10:00:20;7.22;;;2.60;;
21235;SDS011;10775;42.678;26.324;2023-10-09T10:03:18;4.53;;;1.92;;
21235;SDS011;10775;42.678;26.324;2023-10-09T10:05:48;6.03;;;1.85;;
21235;SDS011;10775;42.678;26.324;2023-10-09T10:08:16;3.85;;;1.63;;
21235;SDS011;10775;42.678;26.324;2023-10-09T10:10:44;5.45;;;1.85;;
21235;SDS011;10775;42.678;26.324;2023-10-09T10:13:15;4.70;;;2.10;;
21235;SDS011;10775;42.678;26.324;2023-10-09T10:18:30;9.48;;;1.75;;
21235;SDS011;10775;42.678;26.324;2023-10-09T10:21:09;3.65;;;1.88;;
21235;SDS011;10775;42.678;26.324;2023-10-09T10:23:41;4.65;;;2.00;;
21235;SDS011;10775;42.678;26.324;2023-10-09T10:29:24;4.05;;;1.60;;
21235;SDS011;10775;42.678;26.324;2023-10-09T10:34:20;2.55;;;1.60;;
21235;SDS011;10775;42.678;26.324;2023-10-09T10:36:49;4.03;;;1.50;;
21235;SDS011;10775;42.678;26.324;2023-10-09T10:39:23;3.63;;;1.35;;
21235;SDS011;10775;42.678;26.324;2023-10-09T10:42:08;4.32;;;1.42;;
21235;SDS011;10775;42.678;26.324;2023-10-09T10:44:52;2.95;;;1.30;;
21235;SDS011;10775;42.678;26.324;2023-10-09T10:47:18;6.07;;;1.60;;
21235;SDS011;10775;42.678;26.324;2023-10-09T10:49:57;6.57;;;1.73;;
21235;SDS011;10775;42.678;26.324;2023-10-09T10:52:27;5.43;;;1.60;;
21235;SDS011;10775;42.678;26.324;2023-10-09T10:55:12;3.97;;;1.52;;
21235;SDS011;10775;42.678;26.324;2023-10-09T10:57:57;7.72;;;1.70;;
21235;SDS011;10775;42.678;26.324;2023-10-09T11:00:29;2.28;;;1.10;;
21235;SDS011;10775;42.678;26.324;2023-10-09T11:03:28;5.00;;;1.17;;
21235;SDS011;10775;42.678;26.324;2023-10-09T11:06:26;8.43;;;1.63;;
21235;SDS011;10775;42.678;26.324;2023-10-09T11:09:08;3.25;;;1.40;;
21235;SDS011;10775;42.678;26.324;2023-10-09T11:11:47;2.97;;;1.20;;
21235;SDS011;10775;42.678;26.324;2023-10-09T11:14:14;4.25;;;1.65;;
21235;SDS011;10775;42.678;26.324;2023-10-09T11:16:40;5.32;;;1.20;;
21235;SDS011;10775;42.678;26.324;2023-10-09T11:19:21;3.72;;;1.70;;
21235;SDS011;10775;42.678;26.324;2023-10-09T11:21:53;2.28;;;1.55;;
21235;SDS011;10775;42.678;26.324;2023-10-09T11:24:40;2.40;;;1.10;;
21235;SDS011;10775;42.678;26.324;2023-10-09T11:27:08;4.95;;;1.92;;
21235;SDS011;10775;42.678;26.324;2023-10-09T11:29:52;4.70;;;1.80;;
21235;SDS011;10775;42.678;26.324;2023-10-09T11:32:18;2.03;;;1.20;;
21235;SDS011;10775;42.678;26.324;2023-10-09T11:34:50;13.50;;;6.88;;
21235;SDS011;10775;42.678;26.324;2023-10-09T11:37:33;4.07;;;1.30;;
21235;SDS011;10775;42.678;26.324;2023-10-09T11:40:14;6.40;;;1.58;;
21235;SDS011;10775;42.678;26.324;2023-10-09T11:43:19;4.30;;;1.45;;
21235;SDS011;10775;42.678;26.324;2023-10-09T11:46:11;2.53;;;1.60;;
21235;SDS011;10775;42.678;26.324;2023-10-09T11:48:36;3.50;;;1.50;;
21235;SDS011;10775;42.678;26.324;2023-10-09T11:51:22;4.95;;;1.58;;
21235;SDS011;10775;42.678;26.324;2023-10-09T11:53:47;2.63;;;1.63;;
21235;SDS011;10775;42.678;26.324;2023-10-09T11:56:21;4.95;;;1.50;;
21235;SDS011;10775;42.678;26.324;2023-10-09T11:58:47;5.72;;;1.40;;
21235;SDS011;10775;42.678;26.324;2023-10-09T12:01:15;6.15;;;1.50;;
21235;SDS011;10775;42.678;26.324;2023-10-09T12:03:48;6.55;;;2.17;;
21235;SDS011;10775;42.678;26.324;2023-10-09T12:06:17;4.18;;;1.25;;
21235;SDS011;10775;42.678;26.324;2023-10-09T12:08:55;2.53;;;1.40;;
21235;SDS011;10775;42.678;26.324;2023-10-09T12:11:23;5.47;;;1.63;;
21235;SDS011;10775;42.678;26.324;2023-10-09T12:13:53;8.05;;;1.50;;
21235;SDS011;10775;42.678;26.324;2023-10-09T12:16:21;7.43;;;2.95;;
21235;SDS011;10775;42.678;26.324;2023-10-09T12:18:53;4.00;;;2.00;;
21235;SDS011;10775;42.678;26.324;2023-10-09T12:21:21;4.13;;;1.50;;
21235;SDS011;10775;42.678;26.324;2023-10-09T12:23:48;4.28;;;1.10;;
21235;SDS011;10775;42.678;26.324;2023-10-09T12:26:13;4.32;;;1.83;;
21235;SDS011;10775;42.678;26.324;2023-10-09T12:28:41;2.75;;;1.27;;
21235;SDS011;10775;42.678;26.324;2023-10-09T12:31:11;5.03;;;1.30;;
21235;SDS011;10775;42.678;26.324;2023-10-09T12:33:40;4.30;;;1.67;;
21235;SDS011;10775;42.678;26.324;2023-10-09T12:36:05;6.35;;;1.77;;
21235;SDS011;10775;42.678;26.324;2023-10-09T12:38:31;3.97;;;1.35;;
21235;SDS011;10775;42.678;26.324;2023-10-09T12:41:05;3.55;;;1.38;;
21235;SDS011;10775;42.678;26.324;2023-10-09T12:44:04;6.15;;;2.03;;
21235;SDS011;10775;42.678;26.324;2023-10-09T12:46:29;3.03;;;2.15;;
21235;SDS011;10775;42.678;26.324;2023-10-09T12:49:02;3.90;;;1.30;;
21235;SDS011;10775;42.678;26.324;2023-10-09T12:51:27;8.13;;;3.85;;
21235;SDS011;10775;42.678;26.324;2023-10-09T12:53:56;3.58;;;1.42;;
21235;SDS011;10775;42.678;26.324;2023-10-09T12:56:26;3.78;;;1.70;;
21235;SDS011;10775;42.678;26.324;2023-10-09T12:58:58;4.28;;;1.48;;
21235;SDS011;10775;42.678;26.324;2023-10-09T13:01:26;5.55;;;1.98;;
21235;SDS011;10775;42.678;26.324;2023-10-09T13:03:57;6.63;;;1.90;;
21235;SDS011;10775;42.678;26.324;2023-10-09T13:06:26;3.53;;;1.50;;
21235;SDS011;10775;42.678;26.324;2023-10-09T13:08:52;2.85;;;1.08;;
21235;SDS011;10775;42.678;26.324;2023-10-09T13:11:21;10.02;;;4.35;;
21235;SDS011;10775;42.678;26.324;2023-10-09T13:13:50;8.35;;;5.10;;
21235;SDS011;10775;42.678;26.324;2023-10-09T13:18:57;6.72;;;2.05;;
21235;SDS011;10775;42.678;26.324;2023-10-09T13:21:28;4.57;;;1.63;;
21235;SDS011;10775;42.678;26.324;2023-10-09T13:23:57;3.58;;;1.50;;
21235;SDS011;10775;42.678;26.324;2023-10-09T13:26:23;3.70;;;1.60;;
21235;SDS011;10775;42.678;26.324;2023-10-09T13:28:53;3.97;;;1.40;;
21235;SDS011;10775;42.678;26.324;2023-10-09T13:31:21;3.15;;;1.40;;
21235;SDS011;10775;42.678;26.324;2023-10-09T13:33:50;5.30;;;2.08;;
21235;SDS011;10775;42.678;26.324;2023-10-09T13:36:20;6.60;;;3.13;;
21235;SDS011;10775;42.678;26.324;2023-10-09T13:38:53;14.52;;;6.38;;
21235;SDS011;10775;42.678;26.324;2023-10-09T13:41:19;8.95;;;1.65;;
21235;SDS011;10775;42.678;26.324;2023-10-09T13:43:45;3.25;;;2.10;;
21235;SDS011;10775;42.678;26.324;2023-10-09T13:46:10;3.85;;;1.80;;
21235;SDS011;10775;42.678;26.324;2023-10-09T13:48:37;4.55;;;1.77;;
21235;SDS011;10775;42.678;26.324;2023-10-09T13:51:09;6.43;;;1.90;;
21235;SDS011;10775;42.678;26.324;2023-10-09T13:53:41;3.67;;;1.27;;
21235;SDS011;10775;42.678;26.324;2023-10-09T13:56:10;3.13;;;1.73;;
21235;SDS011;10775;42.678;26.324;2023-10-09T13:58:40;10.13;;;1.77;;
21235;SDS011;10775;42.678;26.324;2023-10-09T14:01:08;5.35;;;1.65;;
21235;SDS011;10775;42.678;26.324;2023-10-09T14:03:34;3.80;;;1.90;;
21235;SDS011;10775;42.678;26.324;2023-10-09T14:06:00;3.25;;;1.38;;
21235;SDS011;10775;42.678;26.324;2023-10-09T14:08:35;4.90;;;2.05;;
21235;SDS011;10775;42.678;26.324;2023-10-09T14:11:07;5.50;;;1.60;;
21235;SDS011;10775;42.678;26.324;2023-10-09T14:13:39;16.25;;;8.48;;
21235;SDS011;10775;42.678;26.324;2023-10-09T14:16:05;30.15;;;16.48;;
21235;SDS011;10775;42.678;26.324;2023-10-09T14:18:31;10.32;;;2.20;;
21235;SDS011;10775;42.678;26.324;2023-10-09T14:21:00;4.68;;;1.70;;
21235;SDS011;10775;42.678;26.324;2023-10-09T14:23:29;6.35;;;1.70;;
21235;SDS011;10775;42.678;26.324;2023-10-09T14:25:59;7.28;;;2.03;;
21235;SDS011;10775;42.678;26.324;2023-10-09T14:28:26;5.10;;;1.73;;
21235;SDS011;10775;42.678;26.324;2023-10-09T14:30:54;6.72;;;1.70;;
21235;SDS011;10775;42.678;26.324;2023-10-09T14:33:24;5.22;;;1.80;;
21235;SDS011;10775;42.678;26.324;2023-10-09T14:35:53;6.45;;;1.50;;
21235;SDS011;10775;42.678;26.324;2023-10-09T14:38:19;4.07;;;1.80;;
21235;SDS011;10775;42.678;26.324;2023-10-09T14:40:52;2.75;;;1.17;;
21235;SDS011;10775;42.678;26.324;2023-10-09T14:43:22;4.30;;;1.40;;
21235;SDS011;10775;42.678;26.324;2023-10-09T14:45:53;3.97;;;1.85;;
21235;SDS011;10775;42.678;26.324;2023-10-09T14:48:19;7.15;;;1.98;;
21235;SDS011;10775;42.678;26.324;2023-10-09T14:50:51;4.28;;;1.70;;
21235;SDS011;10775;42.678;26.324;2023-10-09T14:53:22;2.35;;;2.05;;
21235;SDS011;10775;42.678;26.324;2023-10-09T14:55:55;2.15;;;1.50;;
21235;SDS011;10775;42.678;26.324;2023-10-09T14:58:21;3.13;;;1.52;;
21235;SDS011;10775;42.678;26.324;2023-10-09T15:00:50;5.10;;;1.77;;
21235;SDS011;10775;42.678;26.324;2023-10-09T15:03:16;4.00;;;2.17;;
21235;SDS011;10775;42.678;26.324;2023-10-09T15:05:45;6.15;;;1.42;;
21235;SDS011;10775;42.678;26.324;2023-10-09T15:08:19;6.65;;;1.48;;
21235;SDS011;10775;42.678;26.324;2023-10-09T15:10:48;4.38;;;1.52;;
21235;SDS011;10775;42.678;26.324;2023-10-09T15:13:20;5.60;;;1.98;;
21235;SDS011;10775;42.678;26.324;2023-10-09T15:15:53;5.53;;;1.90;;
21235;SDS011;10775;42.678;26.324;2023-10-09T15:18:20;5.70;;;2.03;;
21235;SDS011;10775;42.678;26.324;2023-10-09T15:20:47;3.88;;;1.92;;
21235;SDS011;10775;42.678;26.324;2023-10-09T15:23:13;3.90;;;1.55;;
21235;SDS011;10775;42.678;26.324;2023-10-09T15:25:38;9.15;;;1.92;;
21235;SDS011;10775;42.678;26.324;2023-10-09T15:28:07;3.60;;;2.00;;
21235;SDS011;10775;42.678;26.324;2023-10-09T15:30:34;4.55;;;1.58;;
21235;SDS011;10775;42.678;26.324;2023-10-09T15:33:03;7.38;;;3.17;;
21235;SDS011;10775;42.678;26.324;2023-10-09T15:35:32;6.90;;;2.03;;
21235;SDS011;10775;42.678;26.324;2023-10-09T15:38:01;9.50;;;2.17;;
21235;SDS011;10775;42.678;26.324;2023-10-09T15:40:30;10.15;;;5.28;;
21235;SDS011;10775;42.678;26.324;2023-10-09T15:42:59;9.88;;;4.43;;